createdAt,value
2022-12-28T00:00:12.753Z,0.00
2022-12-28T00:01:12.767Z,0.00
2022-12-28T00:02:12.747Z,0.00
2022-12-28T00:03:12.736Z,0.00
2022-12-28T00:04:12.678Z,0.00
2022-12-28T00:05:12.672Z,0.00
2022-12-28T00:06:12.664Z,0.00
2022-12-28T00:07:12.716Z,0.00
2022-12-28T00:08:12.644Z,0.00
2022-12-28T00:09:12.639Z,0.00
2022-12-28T00:10:12.614Z,0.00
2022-12-28T00:11:20.331Z,0.00
2022-12-28T00:12:13.608Z,0.00
2022-12-28T00:13:12.657Z,0.00
2022-12-28T00:14:12.582Z,0.00
2022-12-28T00:15:12.575Z,0.00
2022-12-28T00:16:12.609Z,0.00
2022-12-28T00:17:12.555Z,0.00
2022-12-28T00:18:12.643Z,0.00
2022-12-28T00:19:12.593Z,0.00
2022-12-28T00:20:12.514Z,0.00
2022-12-28T00:21:12.502Z,0.00
2022-12-28T00:22:12.490Z,0.00
2022-12-28T00:23:12.477Z,0.00
2022-12-28T00:24:12.576Z,0.00
2022-12-28T00:25:12.506Z,0.00
2022-12-28T00:26:12.448Z,0.00
2022-12-28T00:27:12.434Z,0.00
2022-12-28T00:28:12.432Z,0.00
2022-12-28T00:29:12.419Z,0.00
2022-12-28T00:30:12.427Z,0.00
2022-12-28T00:31:12.488Z,0.00
2022-12-28T00:32:12.393Z,0.00
2022-12-28T00:33:12.376Z,0.00
2022-12-28T00:34:12.366Z,0.00
2022-12-28T00:35:12.374Z,0.00
2022-12-28T00:36:12.357Z,0.00
2022-12-28T00:37:13.318Z,0.00
2022-12-28T00:38:12.323Z,0.00
2022-12-28T00:39:12.334Z,0.00
2022-12-28T00:40:12.303Z,0.00
2022-12-28T00:41:12.297Z,0.00
2022-12-28T00:42:12.287Z,0.00
2022-12-28T00:43:12.327Z,0.00
2022-12-28T00:44:12.259Z,0.00
2022-12-28T00:45:12.243Z,0.00
2022-12-28T00:46:12.250Z,0.00
2022-12-28T00:47:12.401Z,0.00
2022-12-28T00:48:12.214Z,0.00
2022-12-28T00:49:12.248Z,0.00
2022-12-28T00:50:12.191Z,0.00
2022-12-28T00:51:12.204Z,0.00
2022-12-28T00:52:12.170Z,0.00
2022-12-28T00:53:12.174Z,0.00
2022-12-28T00:54:12.150Z,0.00
2022-12-28T00:55:12.195Z,0.00
2022-12-28T00:56:12.140Z,0.00
2022-12-28T00:57:12.127Z,0.00
2022-12-28T00:58:12.107Z,0.00
2022-12-28T00:59:12.134Z,0.00
2022-12-28T01:00:12.088Z,0.00
2022-12-28T01:01:12.235Z,0.00
2022-12-28T01:02:12.177Z,0.00
2022-12-28T01:03:12.078Z,0.00
2022-12-28T01:04:12.049Z,0.00
2022-12-28T01:05:12.043Z,0.00
2022-12-28T01:06:12.023Z,0.00
2022-12-28T01:07:12.072Z,0.00
2022-12-28T01:08:12.005Z,0.00
2022-12-28T01:09:11.990Z,0.00
2022-12-28T01:10:11.983Z,0.00
2022-12-28T01:11:11.986Z,0.00
2022-12-28T01:12:11.960Z,0.00
2022-12-28T01:13:12.002Z,0.00
2022-12-28T01:14:11.941Z,0.00
2022-12-28T01:15:11.940Z,0.00
2022-12-28T01:16:11.944Z,0.00
2022-12-28T01:17:11.915Z,0.00
2022-12-28T01:18:12.766Z,0.00
2022-12-28T01:19:11.981Z,0.00
2022-12-28T01:20:11.888Z,0.00
2022-12-28T01:21:11.869Z,0.00
2022-12-28T01:22:11.857Z,0.00
2022-12-28T01:23:11.875Z,0.00
2022-12-28T01:24:11.837Z,0.00
2022-12-28T01:25:11.861Z,0.00
2022-12-28T01:26:11.816Z,0.00
2022-12-28T01:27:11.906Z,0.00
2022-12-28T01:28:11.788Z,0.00
2022-12-28T01:29:11.791Z,0.00
2022-12-28T01:30:11.769Z,0.00
2022-12-28T01:31:11.797Z,0.00
2022-12-28T01:32:11.753Z,0.00
2022-12-28T01:33:11.746Z,0.00
2022-12-28T01:34:11.728Z,0.00
2022-12-28T01:35:11.711Z,0.00
2022-12-28T01:36:11.726Z,0.00
2022-12-28T01:37:11.763Z,0.00
2022-12-28T01:38:11.681Z,0.00
2022-12-28T01:39:11.802Z,0.00
2022-12-28T01:40:11.661Z,0.00
2022-12-28T01:41:11.649Z,0.00
2022-12-28T01:42:11.649Z,0.00
2022-12-28T01:43:11.671Z,0.00
2022-12-28T01:44:11.622Z,0.00
2022-12-28T01:45:11.622Z,0.00
2022-12-28T01:46:11.630Z,0.00
2022-12-28T01:47:11.588Z,0.00
2022-12-28T01:48:11.575Z,0.00
2022-12-28T01:49:11.613Z,0.00
2022-12-28T01:50:11.558Z,0.00
2022-12-28T01:51:11.560Z,0.00
2022-12-28T01:52:11.532Z,0.00
2022-12-28T01:53:11.528Z,0.00
2022-12-28T01:54:11.510Z,0.00
2022-12-28T01:55:11.557Z,0.00
2022-12-28T01:56:11.504Z,0.00
2022-12-28T01:57:11.496Z,0.00
2022-12-28T01:58:11.477Z,0.00
2022-12-28T01:59:11.458Z,0.00
2022-12-28T02:00:11.446Z,0.00
2022-12-28T02:01:11.597Z,0.00
2022-12-28T02:02:11.584Z,0.00
2022-12-28T02:03:11.517Z,0.00
2022-12-28T02:04:11.406Z,0.00
2022-12-28T02:05:11.396Z,0.00
2022-12-28T02:06:11.387Z,0.00
2022-12-28T02:07:11.430Z,0.00
2022-12-28T02:08:11.362Z,0.00
2022-12-28T02:09:11.375Z,0.00
2022-12-28T02:10:41.639Z,0.00
2022-12-28T02:11:12.351Z,0.00
2022-12-28T02:12:11.319Z,0.00
2022-12-28T02:13:11.425Z,0.00
2022-12-28T02:14:11.300Z,0.00
2022-12-28T02:15:11.296Z,0.00
2022-12-28T02:16:11.285Z,0.00
2022-12-28T02:17:11.271Z,0.00
2022-12-28T02:18:11.258Z,0.00
2022-12-28T02:19:11.317Z,0.00
2022-12-28T02:20:11.248Z,0.00
2022-12-28T02:21:11.232Z,0.00
2022-12-28T02:22:11.219Z,0.00
2022-12-28T02:23:11.204Z,0.00
2022-12-28T02:24:11.204Z,0.00
2022-12-28T02:25:13.751Z,0.00
2022-12-28T02:26:11.173Z,0.00
2022-12-28T02:27:11.202Z,0.00
2022-12-28T02:28:11.151Z,0.00
2022-12-28T02:29:11.147Z,0.00
2022-12-28T02:30:11.131Z,0.00
2022-12-28T02:31:11.187Z,0.00
2022-12-28T02:32:11.120Z,0.00
2022-12-28T02:33:11.094Z,0.00
2022-12-28T02:34:11.084Z,0.00
2022-12-28T02:35:11.071Z,0.00
2022-12-28T02:36:17.979Z,0.00
2022-12-28T02:37:12.212Z,0.00
2022-12-28T02:38:11.043Z,0.00
2022-12-28T02:39:11.033Z,0.00
2022-12-28T02:40:11.027Z,0.00
2022-12-28T02:41:11.007Z,0.00
2022-12-28T02:42:10.999Z,0.00
2022-12-28T02:43:11.085Z,0.00
2022-12-28T02:44:10.981Z,0.00
2022-12-28T02:45:10.965Z,0.00
2022-12-28T02:46:11.005Z,0.00
2022-12-28T02:47:10.951Z,0.00
2022-12-28T02:48:10.938Z,0.00
2022-12-28T02:49:11.096Z,0.00
2022-12-28T02:50:10.915Z,0.00
2022-12-28T02:51:10.919Z,0.00
2022-12-28T02:52:10.893Z,0.00
2022-12-28T02:53:10.889Z,0.00
2022-12-28T02:54:10.884Z,0.00
2022-12-28T02:55:10.922Z,0.00
2022-12-28T02:56:11.851Z,0.00
2022-12-28T02:57:10.839Z,0.00
2022-12-28T02:58:10.828Z,0.00
2022-12-28T02:59:10.838Z,0.00
2022-12-28T03:00:10.814Z,0.00
2022-12-28T03:01:11.229Z,0.00
2022-12-28T03:02:10.967Z,0.00
2022-12-28T03:03:10.851Z,0.00
2022-12-28T03:04:10.766Z,0.00
2022-12-28T03:05:10.757Z,0.00
2022-12-28T03:06:14.644Z,0.00
2022-12-28T03:07:11.814Z,0.00
2022-12-28T03:08:10.747Z,0.00
2022-12-28T03:09:10.710Z,0.00
2022-12-28T03:10:10.731Z,0.00
2022-12-28T03:11:10.697Z,0.00
2022-12-28T03:12:10.699Z,0.00
2022-12-28T03:13:10.744Z,0.00
2022-12-28T03:14:10.663Z,0.00
2022-12-28T03:15:10.674Z,0.00
2022-12-28T03:16:10.699Z,0.00
2022-12-28T03:17:10.635Z,0.00
2022-12-28T03:18:10.618Z,0.00
2022-12-28T03:19:10.678Z,0.00
2022-12-28T03:20:10.595Z,0.00
2022-12-28T03:21:10.585Z,0.00
2022-12-28T03:22:10.580Z,0.00
2022-12-28T03:23:10.563Z,0.00
2022-12-28T03:24:10.576Z,0.00
2022-12-28T03:25:10.582Z,0.00
2022-12-28T03:26:10.543Z,0.00
2022-12-28T03:27:10.534Z,0.00
2022-12-28T03:28:10.516Z,0.00
2022-12-28T03:29:10.504Z,0.00
2022-12-28T03:30:10.504Z,0.00
2022-12-28T03:31:10.531Z,0.00
2022-12-28T03:32:10.471Z,0.00
2022-12-28T03:33:10.454Z,0.00
2022-12-28T03:34:10.446Z,0.00
2022-12-28T03:35:10.443Z,0.00
2022-12-28T03:36:10.426Z,0.00
2022-12-28T03:37:10.472Z,0.00
2022-12-28T03:38:10.404Z,0.00
2022-12-28T03:39:10.445Z,0.00
2022-12-28T03:40:10.406Z,0.00
2022-12-28T03:41:10.368Z,0.00
2022-12-28T03:42:10.384Z,0.00
2022-12-28T03:43:10.348Z,0.00
2022-12-28T03:44:10.338Z,0.00
2022-12-28T03:45:10.359Z,0.00
2022-12-28T03:46:10.401Z,0.00
2022-12-28T03:47:10.332Z,0.00
2022-12-28T03:48:10.303Z,0.00
2022-12-28T03:49:10.284Z,0.00
2022-12-28T03:50:10.284Z,0.00
2022-12-28T03:51:10.281Z,0.00
2022-12-28T03:52:10.258Z,0.00
2022-12-28T03:53:10.263Z,0.00
2022-12-28T03:54:10.232Z,0.00
2022-12-28T03:55:10.220Z,0.00
2022-12-28T03:56:10.231Z,0.00
2022-12-28T03:57:10.210Z,0.00
2022-12-28T03:58:10.199Z,0.00
2022-12-28T03:59:10.182Z,0.00
2022-12-28T04:00:10.172Z,0.00
2022-12-28T04:01:10.299Z,0.00
2022-12-28T04:02:10.340Z,0.00
2022-12-28T04:03:10.382Z,0.00
2022-12-28T04:04:10.129Z,0.00
2022-12-28T04:05:10.131Z,0.00
2022-12-28T04:06:10.110Z,0.00
2022-12-28T04:07:10.094Z,0.00
2022-12-28T04:08:10.098Z,0.00
2022-12-28T04:09:10.096Z,0.00
2022-12-28T04:10:10.065Z,0.00
2022-12-28T04:11:10.053Z,0.00
2022-12-28T04:12:10.047Z,0.00
2022-12-28T04:13:10.033Z,0.00
2022-12-28T04:14:11.186Z,0.00
2022-12-28T04:15:10.020Z,0.00
2022-12-28T04:16:10.061Z,0.00
2022-12-28T04:17:09.993Z,0.00
2022-12-28T04:18:10.087Z,0.00
2022-12-28T04:19:09.992Z,0.00
2022-12-28T04:20:09.961Z,0.00
2022-12-28T04:21:09.952Z,0.00
2022-12-28T04:22:09.942Z,0.00
2022-12-28T04:23:09.933Z,0.00
2022-12-28T04:24:09.928Z,0.00
2022-12-28T04:25:09.921Z,0.00
2022-12-28T04:26:09.903Z,0.00
2022-12-28T04:27:09.895Z,0.00
2022-12-28T04:28:09.872Z,0.00
2022-12-28T04:29:09.869Z,0.00
2022-12-28T04:30:09.860Z,0.00
2022-12-28T04:31:09.915Z,0.00
2022-12-28T04:32:09.848Z,0.00
2022-12-28T04:33:09.839Z,0.00
2022-12-28T04:34:09.809Z,0.00
2022-12-28T04:35:09.843Z,0.00
2022-12-28T04:36:09.796Z,0.00
2022-12-28T04:37:09.777Z,0.00
2022-12-28T04:38:09.764Z,0.00
2022-12-28T04:39:09.762Z,0.00
2022-12-28T04:40:09.852Z,0.00
2022-12-28T04:41:09.747Z,0.00
2022-12-28T04:42:09.722Z,0.00
2022-12-28T04:43:09.713Z,0.00
2022-12-28T04:44:09.701Z,0.00
2022-12-28T04:45:09.720Z,0.00
2022-12-28T04:46:09.788Z,0.00
2022-12-28T04:47:09.673Z,0.00
2022-12-28T04:48:09.659Z,0.00
2022-12-28T04:49:09.649Z,0.00
2022-12-28T04:50:09.636Z,0.00
2022-12-28T04:51:09.672Z,0.00
2022-12-28T04:52:09.636Z,0.00
2022-12-28T04:53:09.609Z,0.00
2022-12-28T04:54:09.595Z,0.00
2022-12-28T04:55:31.600Z,0.00
2022-12-28T04:56:10.576Z,0.00
2022-12-28T04:57:09.578Z,0.00
2022-12-28T04:58:09.552Z,0.00
2022-12-28T04:59:09.567Z,0.00
2022-12-28T05:00:09.529Z,0.00
2022-12-28T05:01:09.629Z,0.00
2022-12-28T05:02:09.656Z,0.00
2022-12-28T05:03:09.519Z,0.00
2022-12-28T05:04:09.498Z,0.00
2022-12-28T05:05:09.488Z,0.00
2022-12-28T05:06:09.469Z,0.00
2022-12-28T05:07:09.503Z,0.00
2022-12-28T05:08:09.449Z,0.00
2022-12-28T05:09:09.445Z,0.00
2022-12-28T05:10:09.433Z,0.00
2022-12-28T05:11:09.426Z,0.00
2022-12-28T05:12:09.416Z,0.00
2022-12-28T05:13:09.393Z,0.00
2022-12-28T05:14:09.387Z,0.00
2022-12-28T05:15:09.427Z,0.00
2022-12-28T05:16:09.395Z,0.00
2022-12-28T05:17:09.363Z,0.00
2022-12-28T05:18:09.347Z,0.00
2022-12-28T05:19:09.331Z,0.00
2022-12-28T05:20:09.351Z,0.00
2022-12-28T05:21:09.324Z,0.00
2022-12-28T05:22:09.319Z,0.00
2022-12-28T05:23:09.308Z,0.00
2022-12-28T05:24:09.282Z,0.00
2022-12-28T05:25:09.267Z,0.00
2022-12-28T05:26:09.259Z,0.00
2022-12-28T05:27:09.260Z,0.00
2022-12-28T05:28:09.250Z,0.00
2022-12-28T05:29:09.236Z,0.00
2022-12-28T05:30:09.230Z,0.00
2022-12-28T05:31:09.257Z,0.00
2022-12-28T05:32:09.195Z,0.00
2022-12-28T05:33:09.195Z,0.00
2022-12-28T05:34:09.177Z,0.00
2022-12-28T05:35:09.162Z,0.00
2022-12-28T05:36:09.164Z,0.00
2022-12-28T05:37:09.139Z,0.00
2022-12-28T05:38:09.131Z,0.00
2022-12-28T05:39:09.164Z,0.00
2022-12-28T05:40:09.113Z,0.00
2022-12-28T05:41:09.115Z,0.00
2022-12-28T05:42:09.091Z,0.00
2022-12-28T05:43:09.080Z,0.00
2022-12-28T05:44:09.074Z,0.00
2022-12-28T05:45:09.080Z,0.00
2022-12-28T05:46:09.048Z,0.00
2022-12-28T05:47:09.119Z,0.00
2022-12-28T05:48:09.028Z,0.00
2022-12-28T05:49:09.011Z,0.00
2022-12-28T05:50:09.019Z,0.00
2022-12-28T05:51:09.000Z,0.00
2022-12-28T05:52:08.983Z,0.00
2022-12-28T05:53:08.970Z,0.00
2022-12-28T05:54:08.988Z,0.00
2022-12-28T05:55:08.975Z,0.00
2022-12-28T05:56:13.932Z,0.00
2022-12-28T05:57:09.938Z,0.00
2022-12-28T05:58:08.920Z,0.00
2022-12-28T05:59:08.913Z,0.00
2022-12-28T06:00:08.915Z,0.00
2022-12-28T06:01:08.937Z,0.00
2022-12-28T06:02:09.030Z,0.00
2022-12-28T06:03:09.189Z,0.00
2022-12-28T06:04:08.858Z,0.00
2022-12-28T06:05:08.843Z,0.00
2022-12-28T06:06:08.863Z,0.00
2022-12-28T06:07:08.827Z,0.00
2022-12-28T06:08:08.815Z,0.00
2022-12-28T06:09:08.808Z,0.00
2022-12-28T06:10:08.793Z,0.00
2022-12-28T06:11:08.801Z,0.00
2022-12-28T06:12:08.819Z,0.00
2022-12-28T06:13:08.769Z,0.00
2022-12-28T06:14:08.748Z,0.00
2022-12-28T06:15:08.753Z,0.00
2022-12-28T06:16:08.782Z,0.00
2022-12-28T06:17:08.731Z,0.00
2022-12-28T06:18:08.708Z,0.00
2022-12-28T06:19:08.701Z,0.00
2022-12-28T06:20:08.691Z,0.00
2022-12-28T06:21:08.680Z,0.00
2022-12-28T06:22:08.676Z,0.00
2022-12-28T06:23:08.669Z,0.00
2022-12-28T06:24:08.641Z,0.00
2022-12-28T06:25:08.635Z,0.00
2022-12-28T06:26:08.628Z,0.00
2022-12-28T06:27:08.632Z,0.00
2022-12-28T06:28:08.662Z,0.00
2022-12-28T06:29:08.607Z,4.00
2022-12-28T06:30:08.654Z,4.00
2022-12-28T06:31:08.565Z,0.00
2022-12-28T06:32:08.643Z,4.00
2022-12-28T06:33:08.604Z,4.00
2022-12-28T06:34:08.556Z,4.00
2022-12-28T06:35:08.539Z,4.00
2022-12-28T06:36:08.525Z,8.00
2022-12-28T06:37:08.509Z,8.00
2022-12-28T06:38:08.500Z,8.00
2022-12-28T06:39:08.491Z,8.00
2022-12-28T06:40:08.493Z,16.00
2022-12-28T06:41:15.557Z,16.00
2022-12-28T06:42:09.452Z,20.00
2022-12-28T06:43:08.464Z,24.00
2022-12-28T06:44:08.541Z,28.00
2022-12-28T06:45:08.419Z,32.00
2022-12-28T06:46:08.471Z,40.00
2022-12-28T06:47:08.396Z,48.00
2022-12-28T06:48:08.388Z,52.00
2022-12-28T06:49:08.378Z,64.00
2022-12-28T06:50:08.384Z,76.00
2022-12-28T06:51:08.378Z,84.00
2022-12-28T06:52:08.358Z,100.00
2022-12-28T06:53:08.331Z,112.00
2022-12-28T06:54:08.329Z,128.00
2022-12-28T06:55:08.309Z,140.00
2022-12-28T06:56:08.324Z,160.00
2022-12-28T06:57:08.290Z,180.00
2022-12-28T06:58:08.293Z,204.00
2022-12-28T06:59:08.324Z,232.00
2022-12-28T07:00:08.262Z,256.00
2022-12-28T07:01:08.423Z,288.00
2022-12-28T07:02:08.491Z,320.00
2022-12-28T07:03:08.259Z,352.00
2022-12-28T07:04:08.221Z,384.00
2022-12-28T07:05:08.207Z,420.00
2022-12-28T07:06:08.207Z,452.00
2022-12-28T07:07:08.194Z,488.00
2022-12-28T07:08:12.500Z,524.00
2022-12-28T07:09:08.176Z,560.00
2022-12-28T07:10:08.159Z,596.00
2022-12-28T07:11:08.141Z,632.00
2022-12-28T07:12:08.145Z,668.00
2022-12-28T07:13:08.114Z,708.00
2022-12-28T07:14:08.117Z,744.00
2022-12-28T07:15:08.230Z,784.00
2022-12-28T07:16:08.104Z,824.00
2022-12-28T07:17:08.080Z,860.00
2022-12-28T07:18:08.083Z,904.00
2022-12-28T07:19:08.167Z,944.00
2022-12-28T07:20:08.058Z,988.00
2022-12-28T07:21:08.042Z,1028.00
2022-12-28T07:22:08.038Z,1072.00
2022-12-28T07:23:08.019Z,1116.00
2022-12-28T07:24:08.013Z,1164.00
2022-12-28T07:25:08.017Z,1220.00
2022-12-28T07:26:07.995Z,1276.00
2022-12-28T07:27:07.975Z,1332.00
2022-12-28T07:28:07.975Z,1396.00
2022-12-28T07:29:07.959Z,1460.00
2022-12-28T07:30:07.948Z,1524.00
2022-12-28T07:31:08.043Z,1584.00
2022-12-28T07:32:07.928Z,1636.00
2022-12-28T07:33:07.912Z,1684.00
2022-12-28T07:34:07.913Z,1728.00
2022-12-28T07:35:07.888Z,1772.00
2022-12-28T07:36:07.879Z,1816.00
2022-12-28T07:37:07.874Z,1864.00
2022-12-28T07:38:07.861Z,1904.00
2022-12-28T07:39:07.840Z,1952.00
2022-12-28T07:40:07.857Z,1996.00
2022-12-28T07:41:07.817Z,2040.00
2022-12-28T07:42:07.811Z,2084.00
2022-12-28T07:43:07.817Z,2128.00
2022-12-28T07:44:07.797Z,2172.00
2022-12-28T07:45:07.776Z,2212.00
2022-12-28T07:46:07.836Z,2252.00
2022-12-28T07:47:07.780Z,2292.00
2022-12-28T07:48:07.750Z,2332.00
2022-12-28T07:49:07.768Z,2368.00
2022-12-28T07:50:07.726Z,2400.00
2022-12-28T07:51:07.728Z,2440.00
2022-12-28T07:52:07.725Z,2472.00
2022-12-28T07:53:07.723Z,2508.00
2022-12-28T07:54:07.744Z,2540.00
2022-12-28T07:55:07.672Z,2580.00
2022-12-28T07:56:07.661Z,2616.00
2022-12-28T07:57:07.751Z,2652.00
2022-12-28T07:58:07.640Z,2696.00
2022-12-28T07:59:07.676Z,2744.00
2022-12-28T08:00:07.619Z,2800.00
2022-12-28T08:01:07.781Z,2860.00
2022-12-28T08:02:07.706Z,2928.00
2022-12-28T08:03:07.724Z,3012.00
2022-12-28T08:04:07.575Z,3116.00
2022-12-28T08:05:07.584Z,3228.00
2022-12-28T08:06:07.562Z,3340.00
2022-12-28T08:07:07.543Z,3440.00
2022-12-28T08:08:07.539Z,3528.00
2022-12-28T08:09:07.563Z,3608.00
2022-12-28T08:10:07.526Z,3700.00
2022-12-28T08:11:07.526Z,3788.00
2022-12-28T08:12:07.501Z,3840.00
2022-12-28T08:13:07.478Z,3860.00
2022-12-28T08:14:07.498Z,3868.00
2022-12-28T08:15:07.463Z,3892.00
2022-12-28T08:16:07.524Z,3928.00
2022-12-28T08:17:07.467Z,4008.00
2022-12-28T08:18:07.430Z,4148.00
2022-12-28T08:19:07.462Z,4300.00
2022-12-28T08:20:07.407Z,4408.00
2022-12-28T08:21:07.390Z,4480.00
2022-12-28T08:22:07.394Z,4524.00
2022-12-28T08:23:07.402Z,4564.00
2022-12-28T08:24:07.363Z,4608.00
2022-12-28T08:25:07.362Z,4672.00
2022-12-28T08:26:07.346Z,4752.00
2022-12-28T08:27:07.333Z,4800.00
2022-12-28T08:28:07.320Z,4852.00
2022-12-28T08:29:07.320Z,4868.00
2022-12-28T08:30:07.316Z,4848.00
2022-12-28T08:31:07.367Z,4740.00
2022-12-28T08:32:07.279Z,4616.00
2022-12-28T08:33:07.263Z,4520.00
2022-12-28T08:34:07.261Z,4440.00
2022-12-28T08:35:07.261Z,4376.00
2022-12-28T08:36:07.240Z,4316.00
2022-12-28T08:37:07.231Z,4248.00
2022-12-28T08:38:07.217Z,4192.00
2022-12-28T08:39:07.218Z,4148.00
2022-12-28T08:40:07.193Z,4112.00
2022-12-28T08:41:07.205Z,4088.00
2022-12-28T08:42:07.168Z,4084.00
2022-12-28T08:43:07.164Z,4076.00
2022-12-28T08:44:07.147Z,4072.00
2022-12-28T08:45:07.141Z,4080.00
2022-12-28T08:46:07.260Z,4096.00
2022-12-28T08:47:07.159Z,4116.00
2022-12-28T08:48:07.106Z,4136.00
2022-12-28T08:49:07.100Z,4168.00
2022-12-28T08:50:07.088Z,4200.00
2022-12-28T08:51:07.105Z,4240.00
2022-12-28T08:52:07.062Z,4284.00
2022-12-28T08:53:07.083Z,4336.00
2022-12-28T08:54:07.040Z,4400.00
2022-12-28T08:55:07.034Z,4476.00
2022-12-28T08:56:07.199Z,4564.00
2022-12-28T08:57:07.013Z,4664.00
2022-12-28T08:58:07.000Z,4780.00
2022-12-28T08:59:07.028Z,4904.00
2022-12-28T09:00:06.978Z,5040.00
2022-12-28T09:01:07.117Z,5188.00
2022-12-28T09:02:07.145Z,5356.00
2022-12-28T09:03:07.080Z,5560.00
2022-12-28T09:04:06.935Z,5820.00
2022-12-28T09:05:06.937Z,6156.00
2022-12-28T09:06:06.931Z,6584.00
2022-12-28T09:07:06.930Z,7068.00
2022-12-28T09:08:06.907Z,7584.00
2022-12-28T09:09:07.325Z,8044.00
2022-12-28T09:10:06.964Z,8456.00
2022-12-28T09:11:06.892Z,8876.00
2022-12-28T09:12:06.852Z,9276.00
2022-12-28T09:13:06.860Z,9496.00
2022-12-28T09:14:06.841Z,9556.00
2022-12-28T09:15:06.827Z,9544.00
2022-12-28T09:16:06.955Z,9392.00
2022-12-28T09:17:06.810Z,9212.00
2022-12-28T09:18:06.799Z,9052.00
2022-12-28T09:19:06.783Z,8944.00
2022-12-28T09:20:06.776Z,8840.00
2022-12-28T09:21:06.770Z,8776.00
2022-12-28T09:22:06.747Z,8780.00
2022-12-28T09:23:06.759Z,8868.00
2022-12-28T09:24:06.735Z,9040.00
2022-12-28T09:25:06.720Z,9372.00
2022-12-28T09:26:06.704Z,9840.00
2022-12-28T09:27:06.695Z,10416.00
2022-12-28T09:28:06.792Z,11152.00
2022-12-28T09:29:06.685Z,11956.00
2022-12-28T09:30:06.673Z,12264.00
2022-12-28T09:31:06.699Z,12280.00
2022-12-28T09:32:06.642Z,12112.00
2022-12-28T09:33:06.635Z,11980.00
2022-12-28T09:35:07.615Z,11624.00
2022-12-28T09:36:06.604Z,11416.00
2022-12-28T09:37:06.625Z,11076.00
2022-12-28T09:38:06.598Z,10776.00
2022-12-28T09:39:06.655Z,10952.00
2022-12-28T09:40:06.577Z,11272.00
2022-12-28T09:41:06.550Z,11448.00
2022-12-28T09:42:06.545Z,11652.00
2022-12-28T09:43:06.534Z,11888.00
2022-12-28T09:44:06.535Z,12284.00
2022-12-28T09:45:06.510Z,13492.00
2022-12-28T09:46:06.508Z,18176.00
2022-12-28T09:47:06.488Z,26656.00
2022-12-28T09:48:06.473Z,34048.00
2022-12-28T09:49:06.472Z,40128.00
2022-12-28T09:50:06.473Z,40768.00
2022-12-28T09:51:06.444Z,43936.00
2022-12-28T09:52:06.439Z,33344.00
2022-12-28T09:53:06.424Z,38816.00
2022-12-28T09:54:06.428Z,40128.00
2022-12-28T09:55:06.424Z,51392.00
2022-12-28T09:56:06.421Z,51200.00
2022-12-28T09:57:06.386Z,50656.00
2022-12-28T09:58:06.380Z,51200.00
2022-12-28T09:59:06.365Z,41216.00
2022-12-28T10:00:06.349Z,45632.00
2022-12-28T10:01:06.391Z,52032.00
2022-12-28T10:02:06.484Z,51616.00
2022-12-28T10:03:06.370Z,35936.00
2022-12-28T10:04:06.304Z,29504.00
2022-12-28T10:05:06.297Z,23552.00
2022-12-28T10:06:06.280Z,19296.00
2022-12-28T10:07:06.277Z,14896.00
2022-12-28T10:08:06.285Z,14444.00
2022-12-28T10:09:06.255Z,16992.00
2022-12-28T10:10:06.255Z,20192.00
2022-12-28T10:11:06.257Z,57280.00
2022-12-28T10:12:06.222Z,50816.00
2022-12-28T10:13:09.366Z,33920.00
2022-12-28T10:14:07.208Z,37568.00
2022-12-28T10:15:06.204Z,41632.00
2022-12-28T10:16:06.222Z,51584.00
2022-12-28T10:17:06.168Z,37152.00
2022-12-28T10:18:06.157Z,54400.00
2022-12-28T10:19:06.151Z,51680.00
2022-12-28T10:20:06.147Z,49632.00
2022-12-28T10:21:06.126Z,54272.00
2022-12-28T10:22:06.126Z,56960.00
2022-12-28T10:23:06.147Z,51456.00
2022-12-28T10:24:31.235Z,46656.00
2022-12-28T10:25:07.078Z,40128.00
2022-12-28T10:26:06.107Z,40864.00
2022-12-28T10:27:06.078Z,30496.00
2022-12-28T10:28:06.048Z,24800.00
2022-12-28T10:29:06.048Z,20512.00
2022-12-28T10:30:06.024Z,24384.00
2022-12-28T10:31:06.071Z,57472.00
2022-12-28T10:32:05.999Z,52576.00
2022-12-28T10:33:07.755Z,65312.00
2022-12-28T10:34:05.980Z,66016.00
2022-12-28T10:35:05.980Z,60576.00
2022-12-28T10:36:05.967Z,57984.00
2022-12-28T10:37:05.973Z,57760.00
2022-12-28T10:38:05.940Z,57952.00
2022-12-28T10:39:05.937Z,56384.00
2022-12-28T10:40:05.915Z,54368.00
2022-12-28T10:41:05.925Z,39552.00
2022-12-28T10:42:05.895Z,35616.00
2022-12-28T10:43:10.890Z,60640.00
2022-12-28T10:44:38.009Z,60224.00
2022-12-28T10:45:06.882Z,57344.00
2022-12-28T10:46:05.852Z,58464.00
2022-12-28T10:47:05.901Z,60704.00
2022-12-28T10:48:05.831Z,58752.00
2022-12-28T10:49:08.712Z,59520.00
2022-12-28T10:51:06.798Z,56480.00
2022-12-28T10:52:05.787Z,55680.00
2022-12-28T10:53:05.780Z,54656.00
2022-12-28T10:54:05.765Z,53088.00
2022-12-28T10:55:08.168Z,51744.00
2022-12-28T10:56:05.753Z,51968.00
2022-12-28T10:57:05.734Z,54752.00
2022-12-28T10:58:34.333Z,55488.00
2022-12-28T10:59:06.730Z,58528.00
2022-12-28T11:00:05.699Z,53568.00
2022-12-28T11:01:06.645Z,59744.00
2022-12-28T11:02:05.937Z,61120.00
2022-12-28T11:03:05.692Z,62784.00
2022-12-28T11:04:05.654Z,61568.00
2022-12-28T11:05:05.647Z,60224.00
2022-12-28T11:06:05.636Z,60640.00
2022-12-28T11:07:05.690Z,62560.00
2022-12-28T11:08:05.615Z,63360.00
2022-12-28T11:09:05.605Z,64512.00
2022-12-28T11:10:05.605Z,65952.00
2022-12-28T11:11:05.586Z,66240.00
2022-12-28T11:12:05.577Z,59296.00
2022-12-28T11:13:05.617Z,58496.00
2022-12-28T11:14:05.550Z,62816.00
2022-12-28T11:15:05.562Z,63488.00
2022-12-28T11:16:05.597Z,60928.00
2022-12-28T11:17:05.514Z,60032.00
2022-12-28T11:18:05.514Z,59104.00
2022-12-28T11:19:05.519Z,60480.00
2022-12-28T11:20:05.483Z,60608.00
2022-12-28T11:21:05.482Z,60736.00
2022-12-28T11:22:05.464Z,61632.00
2022-12-28T11:23:05.458Z,59072.00
2022-12-28T11:24:05.467Z,56736.00
2022-12-28T11:25:05.456Z,54560.00
2022-12-28T11:26:05.414Z,53696.00
2022-12-28T11:27:05.413Z,55264.00
2022-12-28T11:28:05.396Z,58336.00
2022-12-28T11:29:05.386Z,63232.00
2022-12-28T11:30:05.382Z,66304.00
2022-12-28T11:31:05.398Z,65792.00
2022-12-28T11:32:05.356Z,68864.00
2022-12-28T11:33:05.343Z,63712.00
2022-12-28T11:34:05.327Z,62496.00
2022-12-28T11:35:05.339Z,59616.00
2022-12-28T11:36:09.893Z,60032.00
2022-12-28T11:37:05.326Z,58752.00
2022-12-28T11:38:05.285Z,40768.00
2022-12-28T11:39:05.279Z,36064.00
2022-12-28T11:40:05.283Z,37824.00
2022-12-28T11:41:05.276Z,36384.00
2022-12-28T11:43:06.261Z,40384.00
2022-12-28T11:44:05.229Z,47424.00
2022-12-28T11:45:05.224Z,40608.00
2022-12-28T11:46:05.280Z,50528.00
2022-12-28T11:47:05.236Z,43424.00
2022-12-28T11:48:05.191Z,53824.00
2022-12-28T11:49:05.200Z,53440.00
2022-12-28T11:50:05.155Z,54528.00
2022-12-28T11:51:05.168Z,56128.00
2022-12-28T11:52:05.138Z,53696.00
2022-12-28T11:53:10.493Z,55328.00
2022-12-28T11:54:06.115Z,56576.00
2022-12-28T11:55:05.132Z,53056.00
2022-12-28T11:56:05.093Z,50176.00
2022-12-28T11:57:05.083Z,52192.00
2022-12-28T11:58:05.094Z,42368.00
2022-12-28T11:59:05.061Z,41056.00
2022-12-28T12:00:05.053Z,33568.00
2022-12-28T12:01:05.134Z,29888.00
2022-12-28T12:02:05.107Z,24576.00
2022-12-28T12:03:05.085Z,24512.00
2022-12-28T12:04:05.015Z,25280.00
2022-12-28T12:05:04.996Z,25504.00
2022-12-28T12:06:05.004Z,21184.00
2022-12-28T12:07:05.011Z,18144.00
2022-12-28T12:08:04.973Z,21696.00
2022-12-28T12:09:04.955Z,16364.00
2022-12-28T12:10:04.936Z,15932.00
2022-12-28T12:11:04.930Z,14808.00
2022-12-28T12:12:04.917Z,14716.00
2022-12-28T12:13:04.934Z,15028.00
2022-12-28T12:14:04.908Z,16020.00
2022-12-28T12:15:04.887Z,15844.00
2022-12-28T12:16:04.874Z,16220.00
2022-12-28T12:17:04.927Z,19008.00
2022-12-28T12:18:04.859Z,26592.00
2022-12-28T12:19:04.873Z,29024.00
2022-12-28T12:20:04.830Z,34080.00
2022-12-28T12:21:07.649Z,31744.00
2022-12-28T12:22:05.819Z,30560.00
2022-12-28T12:23:04.809Z,33600.00
2022-12-28T12:24:04.857Z,37216.00
2022-12-28T12:25:04.819Z,48256.00
2022-12-28T12:26:04.764Z,39040.00
2022-12-28T12:27:11.776Z,34112.00
2022-12-28T12:28:05.756Z,28896.00
2022-12-28T12:29:04.740Z,28128.00
2022-12-28T12:30:04.722Z,27456.00
2022-12-28T12:31:04.785Z,31072.00
2022-12-28T12:32:04.703Z,35552.00
2022-12-28T12:33:04.693Z,32288.00
2022-12-28T12:34:04.697Z,27392.00
2022-12-28T12:35:04.693Z,27840.00
2022-12-28T12:36:04.657Z,38624.00
2022-12-28T12:37:04.683Z,33280.00
2022-12-28T12:38:04.638Z,32992.00
2022-12-28T12:39:04.636Z,34144.00
2022-12-28T12:40:04.653Z,32320.00